Sahiwal Weather



Sahiwal's Current Weather

Temprature 28.65o clear sky

clear sky

Rain: 0 %

Min Temprature28.65o
Max Temprature28.65o
Humidity60
Wind Speed3.02 m/h
Sun Rise05:38:35
Sun Set18:42:31
Current Time: 23-Aug-2019 05:16:47
Lat/Lon: 30.67, 73.11




Sahiwal's Geo Location



Sahiwal's Weather Forecast

Time Overall Temp Min Temp Max Temp Humidity Wind Speed Rain
23-Aug-2019 (Fri)
08:00:00 clear sky 33.810 33.807 33.810 36 2.53 m/h 0 %
11:00:00 clear sky 40.450 40.450 40.450 21 2.36 m/h 0 %
14:00:00 clear sky 42.930 42.930 42.931 16 2.11 m/h 0 %
17:00:00 scattered clouds 41.910 41.910 41.911 17 4.27 m/h 0 %
20:00:00 clear sky 36.750 36.750 36.750 22 2.16 m/h 0 %
23:00:00 clear sky 34.042 34.042 34.042 29 4.74 m/h 0 %
24-Aug-2019 (Sat)
02:00:00 clear sky 31.331 31.331 31.331 38 3.35 m/h 0 %
05:00:00 clear sky 30.655 30.655 30.655 37 3.04 m/h 0 %
08:00:00 clear sky 35.307 35.307 35.307 27 4.61 m/h 0 %
11:00:00 clear sky 41.169 41.169 41.169 19 3.65 m/h 0 %
14:00:00 clear sky 44.169 44.169 44.169 14 3.17 m/h 0 %
17:00:00 scattered clouds 41.823 41.823 41.823 17 4.6 m/h 0 %
20:00:00 scattered clouds 36.850 36.850 36.850 23 3.64 m/h 0 %
23:00:00 few clouds 34.969 34.969 34.969 26 4.13 m/h 0 %
25-Aug-2019 (Sun)
02:00:00 clear sky 31.831 31.831 31.831 32 2.75 m/h 0 %
05:00:00 clear sky 30.657 30.657 30.657 37 3.16 m/h 0 %
08:00:00 clear sky 35.214 35.214 35.214 24 3.83 m/h 0 %
11:00:00 clear sky 41.816 41.816 41.816 16 3.39 m/h 0 %
14:00:00 clear sky 44.950 44.950 44.950 12 2.68 m/h 0 %
17:00:00 scattered clouds 42.250 42.250 42.250 15 4.39 m/h 0 %
20:00:00 overcast clouds 38.581 38.581 38.581 18 1.15 m/h 0 %
23:00:00 broken clouds 35.511 35.511 35.511 27 4.91 m/h 0 %
26-Aug-2019 (Mon)
02:00:00 clear sky 31.565 31.565 31.565 54 5.93 m/h 0 %
05:00:00 clear sky 29.950 29.950 29.950 63 4.82 m/h 0 %
08:00:00 broken clouds 33.367 33.367 33.367 50 4.23 m/h 0 %
11:00:00 scattered clouds 40.672 40.672 40.672 24 4.27 m/h 0 %
14:00:00 broken clouds 43.484 43.484 43.484 18 3 m/h 0 %
17:00:00 broken clouds 42.020 42.020 42.020 18 3.77 m/h 0 %
20:00:00 broken clouds 36.972 36.972 36.972 27 3.79 m/h 0 %
23:00:00 scattered clouds 33.414 33.414 33.414 42 3 m/h 0 %
27-Aug-2019 (Tue)
02:00:00 broken clouds 32.116 32.116 32.116 49 4.03 m/h 0 %
05:00:00 broken clouds 30.650 30.650 30.650 54 2.96 m/h 0 %
08:00:00 overcast clouds 34.935 34.935 34.935 44 3.91 m/h 0 %
11:00:00 broken clouds 39.936 39.936 39.936 29 2.94 m/h 0 %
14:00:00 overcast clouds 40.436 40.436 40.436 27 2.96 m/h 0 %
17:00:00 overcast clouds 40.765 40.765 40.765 25 3.57 m/h 0 %
20:00:00 few clouds 36.150 36.150 36.150 33 0.88 m/h 0 %
23:00:00 few clouds 33.750 33.750 33.750 40 3.12 m/h 0 %
28-Aug-2019 (Wed)
02:00:00 clear sky 31.957 31.957 31.957 52 3.28 m/h 0 %
05:00:00 clear sky 31.072 31.072 31.072 59 2.35 m/h 0 %

Famous Cities (61)